Drakes Branch, VA (23937)

9:35 PM EDT on October 01, 2014 (GMT -0400)
MesoWest T58A Grand View Acres VA US USARRAY | Change Station
CLOSE
Current Station
Personal Weather Station
Location: Drakes Branch, VA
Elevation: 546 ft
Nearby Weather Stations

Elev 546 ft 36.95 °N, 78.53 °W | Updated 55 minutes ago

Overcast
Overcast
63 °F
Feels Like 63 °F
N
1
Wind Variable Wind from SSW
Gusts 2.0 mph

Today
High -- | Low -- °F
--% Chance of Precip.
Yesterday
High -- | Low -- °F
Precip. -- in
7:09 AM 6:57 PM
First Quarter, 53% visible
Pressure 30.02 in
Visibility 10.0 miles
Clouds Overcast 5000 ft
Dew Point 59 °F
Humidity 90%
Rainfall -999.00 in
Snow Depth Not available.
UV 0 out of 12
Pollen 4.00 out of 12
Air Quality Not available.
Flu Activity Not available.
METAR KFVX 020115Z AUTO 00000KT 10SM OVC050 19/19 A3002 RMK AO2

More Conditions Fewer Conditions

Pressure 30.02 in
Visibility 10.0 miles
Clouds Overcast 5000 ft
Dew Point 59 °F
Humidity 90%
Rainfall -999.00 in
Snow Depth Not available.
UV 0 out of 12
Pollen 4.00 out of 12
Air Quality Not available.
Flu Activity Not available.
METAR KFVX 020115Z AUTO 00000KT 10SM OVC050 19/19 A3002 RMK AO2

More Conditions Fewer Conditions

10-Day Weather Forecast

Almanac

Astronomy

Oct. 01, 2014 Rise Set
Actual Time 7:09 AM EDT 6:57 PM EDT
Civil Twilight 6:43 AM EDT 7:23 PM EDT
Nautical Twilight 6:13 AM EDT 7:53 PM EDT
Astronomical Twilight 5:43 AM EDT 8:23 PM EDT
Moon 2:02 PM EDT (10/1) No Moon Set
Length of Visible Light 12h 39m
Length of Day
11h 48m
Tomorrow will be 2m 20s shorter.
First Quarter, 53% of the Moon is Illuminated
Today
First Quarter
Oct 8
Full
Oct 15
Last Quarter
Oct 23
New
Oct 30
First Quarter

Today's Extremes

State Highs State Lows

Community

WunderPhotos

Upload Photos

1,758,112 photos uploaded!

WunderBlogs® & News

Nearby

Snow Depth

Station Depth Elevation
No new snow has been reported.

Earthquake Activity

City Distance Mag. Time & Date
No recent earthquake activity has been reported nearby.
Minimum magnitude displayed is 2.5.

Coastal Water Temperatures

Place Temperature
No Stations Reporting

Nearby Weather Stations